Clover Valley, Nevada Weather observations

Data are for 10 minute period ending at time listed.
 Day   Time   Solar   Ave.   Ave.  Ave.  Vector  Max.   Baro.   Total    
  of    of     Rad.   Air    Rel.  Wind   Wind   Wind  Press.  Precip.   
Year   Day            Temp.  Hum.  Speed  Dir.   Gust                    
2015   (PST)  Kw/m2    F      %     mph   deg.    mph    mb.     in.     
-------------------------------------------------------------------------
 180   12:20   0.91   90.9    22    5.1    27     9.6   829.6    0.00 
 180   12:30   0.69   91.1    22    3.9     4     8.7   829.6    0.00 
 180   12:40   0.62   88.6    26    4.4    24     7.7   829.5    0.00 
 180   12:50   0.62   88.9    25    2.8   105     6.1   829.4    0.00 
 180   13:00   0.52   91.0    26    3.7   359     9.4   829.2    0.00 
 180   13:10   0.78   93.0    19    4.6   286    10.3   829.1    0.00 
 180   13:20   0.77   95.0    17    2.3   305     7.5   829.0    0.00 
 180   13:30   0.94   94.7    17    4.2   336     9.6   828.9    0.00 
 180   13:40   0.46   92.2    23    2.3    26     6.2   828.8    0.00 
 180   13:50   0.23   90.3    25    2.2   337     3.7   828.8    0.00 
 180   14:00   0.15   87.7    26    6.7   268    14.2   828.7    0.00 
 180   14:10   0.10   86.1    23   10.9   251    18.1   828.7    0.00 
 180   14:20   0.08   85.4    22   17.0   213    40.0   829.0    0.00 
 180   14:30   0.06   81.4    30   22.0   169    34.7   829.3    0.00 
 180   14:40   0.05   77.6    38   14.6   173    23.3   829.5    0.00 
 180   14:50   0.04   82.3    25    4.4   164    10.7   829.2    0.00 
 180   15:00   0.04   82.0    28    4.0   256     7.4   829.0    0.00 
 180   15:10   0.05   81.8    27    6.3   275    12.3   829.0    0.00 
 180   15:20   0.06   82.0    26    8.8   296    12.6   828.8    0.00 
 180   15:30   0.07   82.5    26    8.9   299    13.8   828.6    0.00 
 180   15:40   0.08   86.0    18    8.0   323    24.0   828.1    0.00 
 180   15:50   0.10   85.6    21    5.1   359     9.5   828.2    0.00 
 180   16:00   0.15   83.9    25    4.1   314     6.8   828.2    0.00 
 180   16:10   0.21   83.3    28    3.7   299     6.8   828.1    0.00 
 180   16:20   0.25   84.4    30    1.9   261     3.1   828.0    0.00 
 180   16:30   0.39   86.3    35    2.9   210     4.5   827.9    0.00 
 180   16:40   0.35   88.2    31    3.1   219     4.6   827.7    0.00 
 180   16:50   0.41   90.0    26    4.1   211     8.3   827.7    0.00 
 180   17:00   0.18   87.8    28    5.0   211     7.5   827.6    0.00 
 180   17:10   0.14   84.2    31    5.4   203     7.2   827.6    0.00 
 180   17:20   0.11   82.8    36    4.6   196     5.8   827.5    0.00 
 180   17:30   0.17   83.4    35    4.0   194     5.6   827.5    0.00 
 180   17:40   0.13   84.5    37    4.7   191     6.4   827.5    0.00 
 180   17:50   0.16   84.1    38    4.3   200     6.1   827.6    0.00 
 180   18:00   0.17   83.7    36    4.3   207     7.5   827.8    0.00 
 180   18:10   0.14   84.5    31    3.1   212     8.5   827.9    0.00 
 180   18:20   0.07   83.3    31    3.8   293     6.1   827.9    0.00 
 180   18:30   0.03   81.4    31    4.6   339     7.6   828.0    0.00 
 180   18:40   0.02   79.0    35    4.9    14     7.1   828.2    0.00 
 180   18:50   0.02   75.6    43    5.9    37     9.4   828.3    0.00 
 180   19:00   0.01   77.2    33    7.5     4    10.7   828.4    0.00 
 180   19:10   0.01   78.5    30    8.3    17    15.7   828.7    0.00 
 180   19:20   0.00   78.6    29   10.4    18    16.0   828.8    0.00 
 180   19:30   0.00   77.8    30    9.9    15    16.5   828.9    0.00 
 180   19:40   0.00   78.8    29   12.8     7    19.3   828.9    0.00 
 180   19:50   0.00   78.5    29   11.9     4    17.5   829.0    0.00 
 180   20:00   0.00   77.9    29   10.9   359    16.7   829.1    0.00 
 180   20:10   0.00   77.6    30   10.7   348    14.5   829.3    0.00 
 180   20:20   0.00   76.7    31    8.0   346    12.1   829.5    0.00 
 180   20:30   0.00   76.0    32    7.2   353    10.9   829.7    0.00 
 180   20:40   0.00   75.8    32    6.7   353    10.6   829.7    0.00 
 180   20:50   0.00   74.9    33    6.3   336     9.4   829.8    0.00 
 180   21:00   0.00   73.1    36    4.9   325     6.9   829.9    0.00 
 180   21:10   0.00   70.6    42    4.9   294     6.8   829.9    0.00 
 180   21:20   0.00   70.6    40    6.2   305     9.1   829.9    0.00 
 180   21:30   0.00   71.0    40    5.2   321     6.9   829.9    0.00 
 180   21:40   0.00   69.3    43    5.1   300     6.8   830.1    0.00 
 180   21:50   0.00   69.6    42    3.6   328     8.6   830.1    0.00 
 180   22:00   0.00   66.0    54    3.8   102     5.6   830.2    0.00 
 180   22:10   0.00   66.1    52    3.5    62     6.4   830.3    0.00 
 180   22:20   0.00   66.5    51    2.5   153     3.8   830.4    0.00 
 180   22:30   0.00   65.9    56    3.4   220     4.8   830.5    0.00 
 180   22:40   0.00   64.8    56    3.4   227     6.9   830.7    0.00 
 180   22:50   0.00   69.2    45    3.8   222     7.6   831.0    0.00 
 180   23:00   0.00   69.3    46    3.3   227     5.3   831.2    0.00 
 180   23:10   0.00   68.6    49    4.4   207     6.5   831.4    0.00 
 180   23:20   0.00   68.8    45    2.7   173     4.6   831.4    0.00 
 180   23:30   0.00   69.3    46    3.4   216     4.7   831.5    0.00 
 180   23:40   0.00   69.5    45    2.6   282     3.9   831.3    0.00 
 180   23:50   0.00   68.1    50    4.2   329     5.8   831.1    0.00 
 181    0:00   0.00   67.0    50    5.0   331     7.1   830.9    0.00 
 181    0:10   0.00   66.9    49    5.8   322     8.6   830.8    0.00 
 181    0:20   0.00   68.2    47    5.6   352     7.5   830.5    0.00 
 181    0:30   0.00   68.6    48    6.3   359     8.9   830.2    0.00 
 181    0:40   0.00   68.6    46    5.1   356     7.7   830.3    0.00 
 181    0:50   0.00   66.6    53    2.8   351     4.1   830.4    0.00 
 181    1:00   0.00   65.2    54    2.1   331     4.0   830.4    0.00 
 181    1:10   0.00   64.7    56    4.0   159    12.5   830.5    0.00 
 181    1:20   0.00   65.9    52    2.7   195     6.3   830.6    0.00 
 181    1:30   0.00   63.9    58    3.7   213     5.0   830.7    0.00 
 181    1:40   0.00   63.4    59    4.4   232     5.9   830.5    0.00 
 181    1:50   0.00   62.9    60    5.3   266     6.6   830.5    0.00 
 181    2:00   0.00   62.4    59    3.7   313     4.5   830.6    0.00 
 181    2:10   0.00   60.5    66    3.3   355     5.8   830.7    0.00 
 181    2:20   0.00   58.7    70    4.1   353     5.4   830.6    0.00 
 181    2:30   0.00   58.9    67    3.5   345     5.4   830.5    0.00 
 181    2:40   0.00   59.5    66    3.8   348     5.0   830.6    0.00 
 181    2:50   0.00   58.5    68    4.2   359     5.5   830.7    0.00 
 181    3:00   0.00   56.9    74    4.9    15     6.2   830.7    0.00 
 181    3:10   0.00   58.1    68    4.4     1     5.9   830.5    0.00 
 181    3:20   0.00   58.9    64    3.9     5     5.2   830.5    0.00 
 181    3:30   0.00   58.7    65    3.7   324     4.7   830.5    0.00 
 181    3:40   0.00   58.5    62    4.3   345     5.3   830.3    0.00 
 181    3:50   0.00   57.9    65    2.5   308     4.1   830.5    0.00 
 181    4:00   0.00   57.1    67    3.9   177    10.4   830.8    0.00 
 181    4:10   0.00   57.3    70    3.2   241     4.7   830.8    0.00 
 181    4:20   0.00   55.4    76    2.7   222     3.9   830.9    0.00 
 181    4:30   0.00   55.6    74    3.2   226     4.5   831.0    0.00 
 181    4:40   0.02   56.9    72    4.8   232     6.2   830.9    0.00 
 181    4:50   0.05   57.1    70    3.7   270     5.3   831.2    0.00 
 181    5:00   0.07   58.1    69    3.2   285     4.9   831.3    0.00 
 181    5:10   0.09   60.9    62    3.1   310     4.6   831.2    0.00 
 181    5:20   0.12   64.1    58    1.6   315     2.9   831.4    0.00 
 181    5:30   0.14   63.2    67    3.5    56     5.8   831.5    0.00 
 181    5:40   0.17   62.6    69    2.3    52     3.4   831.7    0.00 
 181    5:50   0.18   63.8    68    2.9    62     4.4   831.8    0.00 
 181    6:00   0.23   65.1    64    3.3    33     4.9   831.7    0.00 
 181    6:10   0.26   65.9    64    3.8    48     5.0   831.6    0.00 
 181    6:20   0.29   66.8    63    3.5    53     4.9   831.5    0.00 
 181    6:30   0.27   69.3    63    1.8    30     3.7   831.5    0.00 
 181    6:40   0.34   72.4    51    1.3    23     2.8   831.4    0.00 
 181    6:50   0.37   74.6    48    1.0    63     1.7   831.4    0.00 
 181    7:00   0.24   76.4    41    0.8   314     1.7   831.4    0.00 
 181    7:10   0.43   78.1    35    1.5   221     2.6   831.3    0.00 
 181    7:20   0.36   79.8    34    0.6   236     1.5   831.3    0.00 
 181    7:30   0.41   80.4    32    1.1   221     2.5   831.2    0.00 
 181    7:40   0.45   81.6    29    0.8   247     1.8   831.1    0.00 
 181    7:50   0.58   80.3    39    1.9   102     3.2   831.0    0.00 
 181    8:00   0.61   78.9    40    2.1   102     2.9   830.8    0.00 
 181    8:10   0.57   79.3    40    1.8   115     2.6   830.8    0.00 
 181    8:20   0.47   79.7    41    1.2   111     2.2   830.7    0.00 
 181    8:30   0.44   83.1    28    0.6   250     2.5   830.6    0.00 
 181    8:40   0.33   84.3    29    1.2   253     2.5   830.6    0.00 
 181    8:50   0.57   85.9    28    0.3   309     1.3   830.5    0.00 
 181    9:00   0.43   87.3    27    0.2   228     0.9   830.4    0.00 
 181    9:10   0.20   88.3    23    0.8   260     2.0   830.4    0.00 
 181    9:20   0.70   88.5    24    1.1   244     3.3   830.4    0.00 
 181    9:30   0.38   88.5    26    1.2    52     3.1   830.3    0.00 
 181    9:40   0.68   86.3    30    1.2   101     2.6   830.3    0.00 
 181    9:50   0.84   87.3    28    1.2    96     2.3   830.3    0.00 
 181   10:00   0.84   86.5    31    1.6    98     2.5   830.4    0.00 
 181   10:10   0.88   87.3    28    1.3   107     2.3   830.4    0.00 
 181   10:20   0.86   88.1    29    1.1    83     2.0   830.4    0.00 
 181   10:30   0.86   88.4    30    1.2    86     2.0   830.3    0.00 
 181   10:40   0.87   87.6    31    2.6    96     4.6   830.3    0.00 
 181   10:50   0.89   87.5    33    2.4   112     3.4   830.3    0.00 
 181   11:00   0.91   87.8    32    2.6   110     3.7   830.2    0.00 
 181   11:10   0.92   88.0    32    3.2   108     4.3   830.1    0.00 
 181   11:20   0.89   87.9    29    2.9   107     4.2   830.0    0.00 
 181   11:30   0.95   88.8    28    2.6    82     4.5   830.0    0.00 
 181   11:40   0.92   89.6    28    2.0    93     5.4   829.8    0.00 
 181   11:50   0.78   89.6    26    2.3   115     6.0   829.8    0.00 
 181   12:00   0.64   89.0    33    2.4    63     5.6   829.7    0.00 
 181   12:10   0.40   88.2    35    1.5    61     5.3   829.5    0.00 

Return to Clover Valley graphs page.


Western Regional Climate Center,wrcc@dri.edu